Time;durP1;ratioP1;P1;durP2;ratioP2;P2;SDS_P1;SDS_P2;PMS_P1;PMS_P2;Temp;Humidity;BMP_temperature;BMP_pressure;BME280_temperature;BME280_humidity;BME280_pressure;Samples;Min_cycle;Max_cycle;Signal;HPM_P1;HPM_P2
2023/08/17 00:02:29;;;;;;;1.23;1.15;;;;;;;22.82;76.30;99869.53;5073455;28;20544;-63
2023/08/17 00:04:58;;;;;;;4.45;1.23;;;;;;;22.83;76.26;99876.41;5073464;28;20215;-64
2023/08/17 00:07:27;;;;;;;1.00;0.98;;;;;;;22.83;76.33;99874.66;5073167;28;20043;-64
2023/08/17 00:09:55;;;;;;;1.13;1.02;;;;;;;22.85;76.22;99879.78;5073020;28;20082;-63
2023/08/17 00:12:24;;;;;;;0.50;0.50;;;;;;;22.90;76.15;99883.03;5072322;28;20056;-64
2023/08/17 00:14:54;;;;;;;2.47;1.58;;;;;;;22.83;76.50;99879.88;5073150;28;20037;-64
2023/08/17 00:17:23;;;;;;;;;;;;;;;22.80;76.81;99877.41;5077347;28;20044;-64
2023/08/17 00:19:53;;;;;;;;;;;;;;;22.80;76.94;99881.75;5077277;28;19967;-64
2023/08/17 00:22:22;;;;;;;3.13;0.95;;;;;;;22.78;77.10;99878.41;5076952;28;19928;-63
2023/08/17 00:24:51;;;;;;;0.80;0.80;;;;;;;22.72;77.32;99883.91;5077053;28;20063;-63
2023/08/17 00:27:20;;;;;;;1.13;0.85;;;;;;;22.75;77.50;99883.78;5076758;28;20285;-63
2023/08/17 00:29:48;;;;;;;0.70;0.70;;;;;;;22.79;77.23;99874.91;5076788;28;20056;-64
2023/08/17 00:32:18;;;;;;;1.00;0.90;;;;;;;22.77;77.36;99861.13;5076797;28;20064;-63
2023/08/17 00:34:48;;;;;;;1.48;1.38;;;;;;;22.76;77.33;99852.44;5076605;28;20478;-63
2023/08/17 00:37:19;;;;;;;1.05;0.90;;;;;;;22.78;77.41;99857.56;5075359;28;20119;-63
2023/08/17 00:39:48;;;;;;;0.68;0.68;;;;;;;22.76;77.04;99864.63;5092434;28;20486;-63
2023/08/17 00:42:16;;;;;;;1.20;1.10;;;;;;;22.77;76.77;99863.72;5075195;28;20044;-64
2023/08/17 00:44:45;;;;;;;1.27;1.17;;;;;;;22.75;76.68;99868.16;5075220;28;20040;-63
2023/08/17 00:47:15;;;;;;;1.17;1.00;;;;;;;22.78;76.61;99868.84;5074952;28;20124;-63
2023/08/17 00:49:45;;;;;;;4.25;2.00;;;;;;;22.76;76.91;99854.19;5075132;28;20571;-63
2023/08/17 00:52:15;;;;;;;2.10;1.50;;;;;;;22.75;77.17;99858.56;5076390;28;20056;-63
2023/08/17 00:54:46;;;;;;;1.50;1.27;;;;;;;22.72;76.84;99860.47;5075270;28;20395;-63
2023/08/17 00:57:15;;;;;;;1.52;1.05;;;;;;;22.77;76.60;99861.13;5075300;28;20072;-63
2023/08/17 00:59:45;;;;;;;3.10;1.40;;;;;;;22.78;76.68;99847.16;5076417;28;20041;-63
2023/08/17 01:02:31;;;;;;;1.38;1.15;;;;;;;22.78;76.91;99853.22;5076067;28;20121;-63
2023/08/17 01:05:00;;;;;;;0.90;0.90;;;;;;;22.76;76.81;99847.25;5074864;28;20036;-64
2023/08/17 01:07:29;;;;;;;1.55;1.42;;;;;;;22.80;76.50;99845.31;5075351;28;20075;-63
2023/08/17 01:10:00;;;;;;;7.70;2.28;;;;;;;22.79;76.52;99838.44;5075920;28;20064;-64
2023/08/17 01:12:32;;;;;;;2.70;1.70;;;;;;;22.77;76.64;99846.31;5074805;28;20051;-63
2023/08/17 01:15:09;;;;;;;1.50;1.20;;;;;;;22.79;76.48;99841.06;5075909;28;20509;-63
2023/08/17 01:17:44;;;;;;;0.70;0.70;;;;;;;22.84;76.56;99836.47;5074976;28;20432;-63
2023/08/17 01:20:17;;;;;;;1.23;1.13;;;;;;;22.81;76.60;99832.25;5076072;28;20123;-64
2023/08/17 01:22:51;;;;;;;1.17;0.98;;;;;;;22.77;76.70;99835.09;5074524;28;20044;-63
2023/08/17 01:25:23;;;;;;;3.22;1.27;;;;;;;22.81;76.60;99836.59;5074507;28;20056;-62
2023/08/17 01:27:52;;;;;;;1.00;0.90;;;;;;;22.83;76.65;99834.78;5075399;28;20131;-62
2023/08/17 01:30:21;;;;;;;0.60;0.60;;;;;;;22.84;76.80;99841.69;5075543;28;20044;-63
2023/08/17 01:32:52;;;;;;;1.48;0.98;;;;;;;22.79;77.22;99838.44;5074723;28;20055;-63
2023/08/17 01:35:30;;;;;;;1.40;1.25;;;;;;;22.74;77.66;99841.28;5075803;28;20124;-63
2023/08/17 01:38:03;;;;;;;1.83;1.45;;;;;;;22.73;77.65;99838.72;5074341;28;20115;-63
2023/08/17 01:40:35;;;;;;;1.17;0.75;;;;;;;22.64;77.76;99846.06;5075751;28;20040;-63
2023/08/17 01:43:04;;;;;;;1.35;0.80;;;;;;;22.61;78.09;99846.22;5074440;28;20044;-63
2023/08/17 01:45:34;;;;;;;0.98;0.80;;;;;;;22.61;78.23;99845.38;5074720;28;20051;-63
2023/08/17 01:48:03;;;;;;;1.63;1.33;;;;;;;22.48;78.78;99846.84;5090714;28;20048;-63
2023/08/17 01:50:32;;;;;;;1.58;1.25;;;;;;;22.46;79.13;99846.03;5074014;28;20041;-62
2023/08/17 01:53:01;;;;;;;1.65;1.27;;;;;;;22.45;79.20;99844.38;5075106;28;20102;-63
2023/08/17 01:55:29;;;;;;;1.23;1.13;;;;;;;22.43;79.54;99841.84;5075058;28;20494;-63
2023/08/17 01:58:00;;;;;;;1.08;0.88;;;;;;;22.33;79.94;99837.97;5073868;28;20283;-64
2023/08/17 02:00:29;;;;;;;1.15;1.00;;;;;;;22.36;80.18;99835.22;5074169;28;20048;-64
2023/08/17 02:02:57;;;;;;;2.87;1.33;;;;;;;22.34;80.12;99831.84;5075195;28;20048;-63
2023/08/17 02:05:29;;;;;;;1.52;1.00;;;;;;;22.26;80.53;99828.78;5074875;28;20307;-63
2023/08/17 02:07:58;;;;;;;1.60;1.13;;;;;;;22.21;80.71;99833.34;5073718;28;20059;-63
2023/08/17 02:10:29;;;;;;;0.60;0.60;;;;;;;22.32;80.73;99836.28;5074778;28;20048;-64
2023/08/17 02:13:00;;;;;;;0.60;0.57;;;;;;;22.39;80.65;99829.03;5074980;28;20138;-63
2023/08/17 02:15:45;;;;;;;2.30;1.75;;;;;;;22.42;80.49;99834.94;5090299;28;20131;-63
2023/08/17 02:18:14;;;;;;;1.27;1.10;;;;;;;22.43;80.54;99825.38;5074851;28;20462;-63
2023/08/17 02:20:43;;;;;;;1.13;1.02;;;;;;;22.45;80.47;99834.81;5074510;28;20040;-63
2023/08/17 02:23:12;;;;;;;1.05;0.95;;;;;;;22.38;80.60;99838.63;5074731;28;20052;-63
2023/08/17 02:25:41;;;;;;;1.20;0.98;;;;;;;22.40;80.81;99825.53;5073259;28;20102;-63
2023/08/17 02:28:11;;;;;;;1.10;1.00;;;;;;;22.41;80.75;99828.03;5073256;28;20045;-63
2023/08/17 02:30:40;;;;;;;1.38;1.27;;;;;;;22.35;81.00;99828.34;5074375;28;20044;-63
2023/08/17 02:33:09;;;;;;;2.65;1.02;;;;;;;22.39;81.04;99829.03;5074290;28;20044;-63
2023/08/17 02:35:38;;;;;;;0.57;0.57;;;;;;;22.40;81.24;99828.97;5074472;28;20033;-62
2023/08/17 02:38:07;;;;;;;2.17;1.52;;;;;;;22.45;81.17;99832.22;5073936;28;20036;-62
2023/08/17 02:40:36;;;;;;;1.05;0.95;;;;;;;22.48;80.81;99829.44;5074459;28;20094;-63
2023/08/17 02:43:05;;;;;;;1.15;1.05;;;;;;;22.46;80.60;99826.06;5072973;28;20075;-63
2023/08/17 02:45:36;;;;;;;1.27;1.08;;;;;;;22.46;80.74;99828.69;5073206;28;20082;-62
2023/08/17 02:48:06;;;;;;;1.23;1.08;;;;;;;22.41;80.60;99828.03;5073758;28;20055;-63
2023/08/17 02:50:35;;;;;;;3.00;2.03;;;;;;;22.33;80.83;99832.78;5074266;28;20045;-64
2023/08/17 02:53:04;;;;;;;3.05;1.92;;;;;;;22.33;80.86;99830.19;5073913;28;20044;-63
2023/08/17 02:55:33;;;;;;;1.70;1.23;;;;;;;22.34;81.03;99826.66;5073022;28;20040;-63
2023/08/17 02:58:02;;;;;;;1.77;1.23;;;;;;;22.38;80.91;99827.38;5072919;28;20037;-63
2023/08/17 03:00:31;;;;;;;2.38;1.70;;;;;;;22.33;81.12;99824.97;5072770;28;20036;-63
2023/08/17 03:03:01;;;;;;;0.85;0.85;;;;;;;22.30;81.31;99830.31;5073808;28;20045;-64
2023/08/17 03:05:30;;;;;;;1.45;1.02;;;;;;;22.29;81.55;99826.00;5073863;28;20064;-63
2023/08/17 03:07:59;;;;;;;1.58;1.33;;;;;;;22.28;81.74;99816.53;5073709;28;20098;-63
2023/08/17 03:10:28;;;;;;;2.00;1.42;;;;;;;22.29;81.77;99820.81;5074107;28;20459;-63
2023/08/17 03:12:57;;;;;;;1.25;1.08;;;;;;;22.29;81.90;99820.81;5073682;28;20131;-63
2023/08/17 03:15:26;;;;;;;1.27;1.17;;;;;;;22.28;82.03;99826.94;5074068;28;20063;-63
2023/08/17 03:17:55;;;;;;;1.63;1.23;;;;;;;22.26;82.20;99828.78;5073634;28;20086;-63
2023/08/17 03:20:25;;;;;;;3.10;1.38;;;;;;;22.31;82.11;99836.38;5073584;28;20075;-63
2023/08/17 03:22:54;;;;;;;1.65;1.42;;;;;;;22.32;82.13;99830.22;5073903;28;20136;-63
2023/08/17 03:25:25;;;;;;;1.20;1.10;;;;;;;22.33;81.98;99824.97;5073626;28;20044;-63
2023/08/17 03:27:54;;;;;;;2.03;1.27;;;;;;;22.29;82.20;99820.81;5074268;28;20056;-63
2023/08/17 03:30:23;;;;;;;1.63;1.40;;;;;;;22.22;82.42;99814.19;5089172;28;20048;-63
2023/08/17 03:32:52;;;;;;;3.80;1.38;;;;;;;22.27;82.71;99811.38;5072354;28;20045;-63
2023/08/17 03:35:21;;;;;;;3.35;1.48;;;;;;;22.36;82.39;99817.00;5073724;28;20043;-63
2023/08/17 03:37:52;;;;;;;2.05;1.60;;;;;;;22.42;81.89;99821.09;5072180;28;20044;-63
2023/08/17 03:40:21;;;;;;;2.85;1.92;;;;;;;22.47;81.65;99821.72;5072354;28;20083;-63
2023/08/17 03:42:50;;;;;;;2.42;1.98;;;;;;;22.50;81.47;99822.44;5073666;28;20037;-63
2023/08/17 03:45:19;;;;;;;3.75;2.00;;;;;;;22.54;81.22;99826.56;5073407;28;20075;-63
2023/08/17 03:47:50;;;;;;;3.00;2.17;;;;;;;22.58;81.00;99832.44;5072030;28;20053;-63
2023/08/17 03:50:19;;;;;;;1.42;1.30;;;;;;;22.57;81.01;99829.03;5074578;28;20558;-63
2023/08/17 03:52:48;;;;;;;2.88;2.33;;;;;;;22.54;81.05;99823.97;5077360;28;20053;-63
2023/08/17 03:55:19;;;;;;;;;;;;;;;22.56;80.90;99821.28;5077416;28;20028;-63
2023/08/17 03:57:48;;;;;;;1.38;1.25;;;;;;;22.56;80.91;99827.34;5076145;28;19924;-63
2023/08/17 04:00:17;;;;;;;1.20;1.08;;;;;;;22.58;80.94;99829.84;5076290;28;20036;-63
2023/08/17 04:02:46;;;;;;;4.05;1.45;;;;;;;22.62;80.96;99826.25;5077262;28;20119;-63
2023/08/17 04:05:19;;;;;;;1.45;1.13;;;;;;;22.63;80.95;99831.38;5076261;28;20410;-63
2023/08/17 04:07:48;;;;;;;1.10;1.00;;;;;;;22.63;80.91;99833.13;5077366;28;20127;-63
2023/08/17 04:10:19;;;;;;;9.23;2.17;;;;;;;22.63;81.24;99830.50;5076986;28;20037;-63
2023/08/17 04:12:47;;;;;;;2.15;1.08;;;;;;;22.64;81.29;99837.41;5093687;28;20375;-63
2023/08/17 04:15:16;;;;;;;1.60;1.45;;;;;;;22.65;81.27;99841.72;5077007;28;20040;-63
2023/08/17 04:17:46;;;;;;;1.95;1.35;;;;;;;22.65;81.26;99842.53;5092915;28;20048;-63
2023/08/17 04:20:14;;;;;;;1.60;1.17;;;;;;;22.61;81.51;99841.00;5077039;28;20040;-63
2023/08/17 04:22:43;;;;;;;2.53;1.75;;;;;;;22.63;81.54;99833.97;5076872;28;20041;-63
2023/08/17 04:25:14;;;;;;;2.05;1.75;;;;;;;22.65;81.40;99841.72;5077521;28;20036;-63
2023/08/17 04:27:44;;;;;;;1.42;1.30;;;;;;;22.59;81.17;99837.59;5075790;28;20033;-64
2023/08/17 04:30:14;;;;;;;0.75;0.75;;;;;;;22.59;81.21;99837.59;5076912;28;20049;-62
2023/08/17 04:32:53;;;;;;;0.90;0.88;;;;;;;22.62;81.23;99836.66;5076599;28;20044;-63
2023/08/17 04:35:22;;;;;;;2.63;1.83;;;;;;;22.61;81.02;99841.00;5076873;28;20139;-63
2023/08/17 04:37:52;;;;;;;2.20;1.88;;;;;;;22.60;81.15;99839.28;5076554;28;20135;-62
2023/08/17 04:40:21;;;;;;;0.88;0.77;;;;;;;22.61;81.09;99845.38;5076540;28;20039;-62
2023/08/17 04:42:51;;;;;;;5.07;2.27;;;;;;;22.63;81.10;99839.16;5076719;28;20581;-62
2023/08/17 04:45:20;;;;;;;2.38;1.73;;;;;;;22.62;81.04;99840.09;5075175;28;20786;-62
2023/08/17 04:47:49;;;;;;;3.90;1.92;;;;;;;22.59;81.29;99840.22;5075029;28;20145;-63
2023/08/17 04:50:19;;;;;;;1.17;1.02;;;;;;;22.58;81.63;99841.09;5075321;28;20139;-63
2023/08/17 04:52:49;;;;;;;2.55;1.33;;;;;;;22.52;81.84;99836.22;5074943;28;20449;-63
2023/08/17 04:55:18;;;;;;;1.60;1.48;;;;;;;22.47;82.15;99840.78;5075101;28;20045;-63
2023/08/17 04:57:46;;;;;;;8.18;1.55;;;;;;;22.43;82.41;99835.78;5074996;28;20047;-63
2023/08/17 05:00:20;;;;;;;2.22;1.83;;;;;;;22.40;82.52;99852.38;5075471;28;20051;-62
2023/08/17 05:02:49;;;;;;;1.38;1.00;;;;;;;22.39;82.77;99853.28;5074303;28;20048;-62
2023/08/17 05:05:18;;;;;;;2.90;1.30;;;;;;;22.38;82.91;99851.63;5091736;28;20051;-61
2023/08/17 05:07:47;;;;;;;1.42;0.98;;;;;;;22.37;82.89;99857.72;5075974;28;20148;-63
2023/08/17 05:10:16;;;;;;;4.28;1.20;;;;;;;22.33;83.10;99856.19;5075082;28;20066;-63
2023/08/17 05:12:46;;;;;;;1.17;1.05;;;;;;;22.32;83.43;99854.50;5074851;28;20390;-62
2023/08/17 05:15:17;;;;;;;1.20;1.10;;;;;;;22.30;83.61;99851.13;5075859;28;20049;-63
2023/08/17 05:17:46;;;;;;;3.85;1.48;;;;;;;22.28;83.86;99860.75;5074593;28;20048;-61
2023/08/17 05:20:16;;;;;;;2.70;1.60;;;;;;;22.32;84.02;99854.50;5074577;28;20499;-62
2023/08/17 05:22:44;;;;;;;2.42;1.48;;;;;;;22.39;83.78;99861.09;5074427;28;20036;-63
2023/08/17 05:25:14;;;;;;;0.90;0.80;;;;;;;22.45;83.18;99855.63;5075966;28;20487;-63
2023/08/17 05:27:43;;;;;;;1.67;1.15;;;;;;;22.54;82.78;99860.41;5074386;28;20041;-63
2023/08/17 05:30:12;;;;;;;2.33;1.45;;;;;;;22.58;82.43;99861.94;5074991;28;20604;-63
2023/08/17 05:32:42;;;;;;;;;;;;;;;22.67;82.04;99861.53;5074898;28;20041;-63
2023/08/17 05:35:13;;;;;;;1.38;1.27;;;;;;;22.73;81.86;99854.34;5091762;28;19990;-62
2023/08/17 05:37:42;;;;;;;3.85;1.20;;;;;;;22.78;81.54;99852.38;5075413;28;20117;-63
2023/08/17 05:40:11;;;;;;;1.10;0.80;;;;;;;22.84;81.50;99849.50;5075692;28;20191;-63
2023/08/17 05:42:40;;;;;;;3.55;2.25;;;;;;;22.84;81.39;99849.50;5075545;28;20040;-63
2023/08/17 05:45:10;;;;;;;1.65;1.13;;;;;;;22.86;81.07;99845.03;5075276;28;20040;-63
2023/08/17 05:47:39;;;;;;;2.55;2.00;;;;;;;22.88;80.72;99845.81;5074970;28;20056;-64
2023/08/17 05:50:10;;;;;;;1.83;1.20;;;;;;;22.88;80.29;99849.25;5074232;28;20143;-63
2023/08/17 05:52:38;;;;;;;1.42;1.17;;;;;;;22.83;80.27;99848.63;5075116;28;20057;-63
2023/08/17 05:55:08;;;;;;;2.78;1.98;;;;;;;22.86;80.17;99851.09;5075039;28;20124;-63
2023/08/17 05:57:37;;;;;;;;;;;;;;;22.85;79.97;99858.97;5075777;28;20035;-62
2023/08/17 06:00:08;;;;;;;1.00;0.97;;;;;;;22.84;79.91;99862.50;5074958;28;19929;-62
2023/08/17 06:02:40;;;;;;;2.00;1.30;;;;;;;22.88;79.93;99864.03;5074994;28;20063;-63
2023/08/17 06:05:10;;;;;;;1.75;1.35;;;;;;;22.88;79.86;99866.63;5075447;28;20040;-63
2023/08/17 06:07:39;;;;;;;1.88;1.58;;;;;;;22.94;80.01;99853.34;5082225;28;20051;-63
2023/08/17 06:10:08;;;;;;;1.58;1.45;;;;;;;22.96;79.87;99870.53;5094731;28;20566;-63
2023/08/17 06:12:37;;;;;;;1.13;1.02;;;;;;;22.94;79.82;99866.34;5094909;28;20359;-63
2023/08/17 06:15:07;;;;;;;2.13;1.50;;;;;;;22.96;79.88;99867.13;5094675;28;20093;-63
2023/08/17 06:17:36;;;;;;;1.90;1.10;;;;;;;23.00;79.85;99872.09;5094312;28;20382;-63
2023/08/17 06:20:09;;;;;;;1.65;1.38;;;;;;;23.00;79.72;99881.66;5094795;28;20036;-63
2023/08/17 06:22:40;;;;;;;2.05;1.30;;;;;;;23.03;79.77;99878.94;5095067;28;20072;-63
2023/08/17 06:25:09;;;;;;;1.23;1.05;;;;;;;23.05;79.80;99871.88;5094703;28;20055;-63
2023/08/17 06:27:38;;;;;;;;;;;;;;;23.06;80.26;99863.16;5090703;28;20101;-64
2023/08/17 06:30:08;;;;;;;1.43;1.20;;;;;;;23.07;80.72;99864.84;5093178;28;20457;-63
2023/08/17 06:32:37;;;;;;;2.00;1.20;;;;;;;23.05;80.97;99864.06;5093539;28;20402;-63
2023/08/17 06:35:06;;;;;;;1.65;1.15;;;;;;;23.08;80.96;99861.31;5094431;28;20036;-63
2023/08/17 06:37:36;;;;;;;1.60;1.45;;;;;;;23.06;81.21;99856.16;5093777;28;20032;-63
2023/08/17 06:40:07;;;;;;;;;;;;;;;23.10;81.30;99852.53;5094167;28;20040;-63
2023/08/17 06:42:36;;;;;;;2.15;1.60;;;;;;;23.09;81.52;99852.56;5094651;28;19924;-63
2023/08/17 06:45:07;;;;;;;2.33;1.88;;;;;;;23.08;81.66;99861.31;5094338;28;20127;-63
2023/08/17 06:47:35;;;;;;;3.60;1.88;;;;;;;23.10;81.73;99854.28;5092950;28;20063;-63
2023/08/17 06:50:05;;;;;;;1.23;1.10;;;;;;;23.11;81.64;99869.81;5093445;28;20048;-63
2023/08/17 06:52:34;;;;;;;0.70;0.70;;;;;;;23.09;81.70;99873.41;5094768;28;20403;-63
2023/08/17 06:55:03;;;;;;;;;;;;;;;23.11;81.70;99871.56;5095046;28;20044;-63
2023/08/17 06:57:34;;;;;;;1.10;1.00;;;;;;;23.11;81.53;99871.56;5093355;28;19927;-63
2023/08/17 07:00:05;;;;;;;0.93;0.82;;;;;;;23.11;81.38;99871.56;5094663;28;20032;-63
2023/08/17 07:02:34;;;;;;;5.38;1.60;;;;;;;23.14;81.02;99871.41;5094074;28;20052;-63
2023/08/17 07:05:20;;;;;;;3.13;2.00;;;;;;;23.23;80.72;99868.38;5094277;28;20040;-63
2023/08/17 07:07:49;;;;;;;1.48;1.38;;;;;;;23.24;80.55;99867.47;5095426;28;20510;-63
2023/08/17 07:10:18;;;;;;;0.82;0.80;;;;;;;23.32;80.22;99875.75;5093901;28;20036;-63
2023/08/17 07:12:48;;;;;;;1.45;1.20;;;;;;;23.33;79.88;99877.41;5093821;28;20040;-63
2023/08/17 07:15:17;;;;;;;1.92;0.95;;;;;;;23.35;79.34;99880.81;5093686;28;20047;-63
2023/08/17 07:17:46;;;;;;;0.90;0.82;;;;;;;23.41;78.94;99884.88;5093058;28;20067;-63
2023/08/17 07:20:15;;;;;;;1.58;1.30;;;;;;;23.43;79.07;99885.66;5093747;28;20074;-63
2023/08/17 07:22:45;;;;;;;1.75;1.27;;;;;;;23.41;78.42;99880.53;5093733;28;20040;-63
2023/08/17 07:25:14;;;;;;;1.13;1.02;;;;;;;23.44;78.17;99888.19;5092439;28;20036;-63
2023/08/17 07:27:43;;;;;;;2.85;1.63;;;;;;;23.49;77.90;99888.78;5093185;28;20562;-63
2023/08/17 07:30:14;;;;;;;1.30;1.17;;;;;;;23.54;78.05;99881.56;5092711;28;20032;-63
2023/08/17 07:32:43;;;;;;;2.05;1.52;;;;;;;23.55;78.47;99883.28;5092765;28;20039;-63
2023/08/17 07:35:12;;;;;;;1.83;1.30;;;;;;;23.52;78.16;99888.63;5110686;28;20046;-63
2023/08/17 07:37:42;;;;;;;1.15;1.05;;;;;;;23.58;77.76;99888.34;5114261;28;20040;-63
2023/08/17 07:40:20;;;;;;;1.70;1.25;;;;;;;23.63;77.19;99890.72;5113854;28;20054;-63
2023/08/17 07:42:49;;;;;;;1.33;1.23;;;;;;;23.67;76.86;99887.88;5113897;28;20063;-64
2023/08/17 07:45:20;;;;;;;1.38;1.00;;;;;;;23.75;76.95;99892.69;5094098;28;20368;-63
2023/08/17 07:47:49;;;;;;;1.88;1.50;;;;;;;23.80;76.85;99888.09;5093305;28;20509;-63
2023/08/17 07:50:17;;;;;;;3.85;2.38;;;;;;;23.84;76.35;99893.06;5094026;28;20037;-63
2023/08/17 07:52:46;;;;;;;2.85;1.67;;;;;;;23.88;75.86;99886.75;5093725;28;20131;-63
2023/08/17 07:55:15;;;;;;;2.03;1.15;;;;;;;23.93;75.17;99886.53;5092276;28;20046;-64
2023/08/17 07:57:44;;;;;;;;;;;;;;;23.97;74.10;99880.25;5094095;28;20127;-63
2023/08/17 08:00:14;;;;;;;1.90;1.70;;;;;;;24.05;73.31;99877.22;5093452;28;19920;-64
2023/08/17 08:02:44;;;;;;;1.27;1.05;;;;;;;24.11;72.99;99876.94;5093328;28;20121;-64
2023/08/17 08:05:14;;;;;;;2.15;1.58;;;;;;;24.22;72.97;99874.59;5092510;28;20047;-63
2023/08/17 08:07:43;;;;;;;3.30;1.58;;;;;;;24.28;73.34;99882.91;5093412;28;20048;-63
2023/08/17 08:10:12;;;;;;;2.08;1.40;;;;;;;24.29;73.45;99875.94;5093235;28;20089;-63
2023/08/17 08:12:41;;;;;;;17.30;4.82;;;;;;;24.37;73.27;99879.00;5093543;28;20394;-63
2023/08/17 08:15:10;;;;;;;2.38;1.00;;;;;;;24.46;73.31;99881.09;5092291;28;20036;-63
2023/08/17 08:17:39;;;;;;;;;;;;;;;24.56;73.22;99884.91;5091587;28;20032;-63
2023/08/17 08:20:10;;;;;;;11.17;6.50;;;;;;;24.60;72.83;99875.97;5092649;28;20411;-63
2023/08/17 08:22:39;;;;;;;3.13;1.58;;;;;;;24.67;72.56;99881.72;5092309;28;20024;-63
2023/08/17 08:25:08;;;;;;;0.73;0.68;;;;;;;24.72;71.74;99875.28;5093184;28;20044;-63
2023/08/17 08:27:37;;;;;;;0.75;0.75;;;;;;;24.73;70.77;99869.16;5091108;28;20498;-63
2023/08/17 08:30:08;;;;;;;0.63;0.63;;;;;;;24.75;69.97;99875.13;5094049;28;20067;-63
2023/08/17 08:32:37;;;;;;;0.80;0.80;;;;;;;24.78;70.22;99875.00;5092021;28;20040;-63
2023/08/17 08:35:06;;;;;;;1.50;1.10;;;;;;;24.77;71.09;99862.84;5091939;28;20032;-63
2023/08/17 08:37:37;;;;;;;0.90;0.90;;;;;;;24.78;71.83;99872.38;5096086;28;20044;-61
2023/08/17 08:40:13;;;;;;;0.82;0.82;;;;;;;24.78;72.12;99875.00;5096741;28;20055;-63
2023/08/17 08:42:42;;;;;;;1.70;1.60;;;;;;;24.78;72.72;99869.78;5093650;28;20060;-65
2023/08/17 08:45:11;;;;;;;1.90;1.55;;;;;;;24.80;73.00;99857.47;5095633;28;20175;-63
2023/08/17 08:47:43;;;;;;;1.30;1.20;;;;;;;24.80;73.01;99860.06;5096444;28;20501;-63
2023/08/17 08:50:17;;;;;;;5.18;1.80;;;;;;;24.85;72.65;99855.44;5096038;28;20048;-64
2023/08/17 08:52:55;;;;;;;2.00;1.67;;;;;;;24.84;71.42;99861.59;5094643;28;20039;-63
2023/08/17 08:55:34;;;;;;;1.20;0.98;;;;;;;24.84;70.47;99847.66;5095234;28;20056;-64
2023/08/17 08:58:06;;;;;;;1.13;1.00;;;;;;;24.86;69.72;99859.72;5094545;28;20502;-63
2023/08/17 09:00:36;;;;;;;1.23;0.90;;;;;;;24.91;68.73;99860.31;5095539;28;20553;-64
2023/08/17 09:03:06;;;;;;;;;;;;;;;24.99;68.56;99862.50;5096648;28;20521;-63
2023/08/17 09:05:36;;;;;;;1.08;0.98;;;;;;;25.12;68.21;99853.84;5096326;28;19923;-63
2023/08/17 09:08:07;;;;;;;;;;;;;;;25.26;68.73;99851.31;5096933;28;20055;-64
2023/08/17 09:10:36;;;;;;;1.80;1.35;;;;;;;25.28;68.22;99848.59;5099127;28;20018;-63
2023/08/17 09:13:06;;;;;;;1.83;1.10;;;;;;;25.31;66.97;99838.78;5095961;28;20046;-63
2023/08/17 09:15:36;;;;;;;1.63;1.40;;;;;;;25.37;66.38;99842.81;5096308;28;20154;-64
2023/08/17 09:18:07;;;;;;;1.88;1.63;;;;;;;25.41;66.06;99838.28;5096397;28;20043;-64
2023/08/17 09:20:42;;;;;;;1.85;1.30;;;;;;;25.48;65.73;99837.00;5094881;28;20047;-63
2023/08/17 09:23:16;;;;;;;2.53;1.63;;;;;;;25.53;65.21;99834.97;5096471;28;20070;-63
2023/08/17 09:25:47;;;;;;;1.13;1.05;;;;;;;25.55;65.25;99835.72;5095897;28;20055;-63
2023/08/17 09:28:18;;;;;;;1.15;1.05;;;;;;;25.61;65.00;99825.72;5094964;28;20402;-63
2023/08/17 09:30:52;;;;;;;7.38;2.00;;;;;;;25.75;65.20;99832.72;5095886;28;20131;-63
2023/08/17 09:33:22;;;;;;;1.98;1.77;;;;;;;25.92;65.17;99832.53;5096034;28;20086;-64
2023/08/17 09:35:51;;;;;;;1.52;1.20;;;;;;;26.06;64.75;99834.34;5095562;28;20052;-63
2023/08/17 09:38:28;;;;;;;0.88;0.88;;;;;;;26.12;64.33;99832.22;5094510;28;20108;-64
2023/08/17 09:40:59;;;;;;;1.25;1.15;;;;;;;26.21;63.48;99826.41;5096011;28;20047;-63
2023/08/17 09:43:30;;;;;;;1.08;0.98;;;;;;;26.32;63.10;99823.13;5094958;28;20517;-64
2023/08/17 09:46:01;;;;;;;1.02;0.93;;;;;;;26.41;62.55;99823.38;5095777;28;20044;-64
2023/08/17 09:48:30;;;;;;;5.40;1.83;;;;;;;26.51;61.96;99819.22;5094224;28;20052;-64
2023/08/17 09:51:02;;;;;;;1.27;1.17;;;;;;;26.57;61.16;99815.38;5095401;28;20064;-64
2023/08/17 09:53:36;;;;;;;2.03;1.33;;;;;;;26.58;61.23;99817.91;5095602;28;20071;-64
2023/08/17 09:56:08;;;;;;;0.70;0.65;;;;;;;26.60;60.80;99813.41;5095950;28;20067;-64
2023/08/17 09:58:37;;;;;;;4.65;2.10;;;;;;;26.59;60.50;99819.56;5094739;28;20127;-64
2023/08/17 10:01:06;;;;;;;0.95;0.85;;;;;;;26.66;59.81;99811.34;5093865;28;20040;-64
2023/08/17 10:03:35;;;;;;;0.55;0.55;;;;;;;26.71;59.16;99810.06;5095175;28;20509;-63
2023/08/17 10:06:07;;;;;;;0.63;0.63;;;;;;;26.74;58.35;99814.28;5095117;28;20071;-63
2023/08/17 10:08:44;;;;;;;1.17;0.45;;;;;;;26.82;58.24;99810.28;5094488;28;20506;-63
2023/08/17 10:11:16;;;;;;;0.68;0.68;;;;;;;27.00;57.72;99800.34;5095290;28;20071;-63
2023/08/17 10:13:53;;;;;;;0.88;0.77;;;;;;;27.07;56.85;99802.47;5094046;28;20147;-63
2023/08/17 10:16:25;;;;;;;4.97;0.80;;;;;;;27.27;55.36;99801.97;5094978;28;20036;-63
2023/08/17 10:19:06;;;;;;;0.85;0.80;;;;;;;27.49;54.64;99798.78;5094045;28;20044;-63
2023/08/17 10:21:41;;;;;;;0.65;0.60;;;;;;;27.58;53.80;99800.75;5094855;28;20114;-63
2023/08/17 10:24:12;;;;;;;1.08;0.98;;;;;;;27.83;53.80;99803.34;5090674;28;20039;-63
2023/08/17 10:26:43;;;;;;;0.60;0.60;;;;;;;28.16;53.17;99794.09;5093252;28;20071;-63
2023/08/17 10:29:12;;;;;;;3.40;1.55;;;;;;;28.27;52.84;99786.28;5094503;28;20167;-63
2023/08/17 10:31:46;;;;;;;0.75;0.75;;;;;;;28.52;53.19;99781.78;5094573;28;20110;-64
2023/08/17 10:34:16;;;;;;;1.10;0.93;;;;;;;28.67;52.63;99785.13;5093271;28;20403;-63
2023/08/17 10:36:48;;;;;;;1.10;1.00;;;;;;;28.76;51.82;99771.31;5094596;28;20040;-63
2023/08/17 10:39:24;;;;;;;1.42;1.33;;;;;;;28.72;50.99;99775.13;5094529;28;20044;-63
2023/08/17 10:41:58;;;;;;;1.38;1.15;;;;;;;28.58;50.76;99762.94;5094667;28;20491;-63
2023/08/17 10:44:45;;;;;;;4.60;2.05;;;;;;;28.43;51.04;99760.63;5090618;28;20032;-63
2023/08/17 10:47:22;;;;;;;0.95;0.77;;;;;;;28.16;51.50;99767.84;5091341;28;20126;-63
2023/08/17 10:49:58;;;;;;;1.23;0.93;;;;;;;28.01;51.76;99761.91;5092064;28;20051;-63
2023/08/17 10:52:32;;;;;;;0.82;0.82;;;;;;;27.92;51.99;99766.00;5094310;28;20048;-63
2023/08/17 10:55:06;;;;;;;1.60;1.17;;;;;;;27.91;52.51;99766.94;5093170;28;20047;-63
2023/08/17 10:57:39;;;;;;;1.08;0.98;;;;;;;27.96;52.52;99757.88;5093927;28;20044;-68
2023/08/17 11:00:24;;;;;;;1.60;1.00;;;;;;;27.93;51.85;99762.41;5093926;28;20052;-65
2023/08/17 11:02:58;;;;;;;1.40;1.27;;;;;;;28.13;51.68;99757.56;5094048;28;20048;-63
2023/08/17 11:05:39;;;;;;;0.65;0.65;;;;;;;28.33;50.78;99757.81;5094028;28;20466;-64
2023/08/17 11:08:10;;;;;;;0.63;0.60;;;;;;;28.51;50.19;99766.13;5092866;28;20543;-64
2023/08/17 11:10:42;;;;;;;0.95;0.80;;;;;;;28.49;50.04;99768.03;5093929;28;20047;-63
2023/08/17 11:13:15;;;;;;;0.68;0.63;;;;;;;28.45;50.04;99763.97;5092989;28;20059;-63
2023/08/17 11:15:44;;;;;;;0.50;0.50;;;;;;;28.65;49.19;99771.25;5094293;28;20036;-64
2023/08/17 11:18:13;;;;;;;1.20;1.02;;;;;;;28.81;49.08;99763.06;5093144;28;20032;-66
2023/08/17 11:20:43;;;;;;;1.17;0.90;;;;;;;28.76;48.84;99768.66;5081549;28;20119;-64
2023/08/17 11:23:13;;;;;;;0.75;0.75;;;;;;;28.79;48.72;99767.59;5093897;28;20505;-63
2023/08/17 11:25:44;;;;;;;0.45;0.45;;;;;;;29.02;48.42;99764.94;5094036;28;20043;-64
2023/08/17 11:28:14;;;;;;;0.75;0.75;;;;;;;29.32;47.71;99755.72;5092075;28;21485;-63
2023/08/17 11:30:43;;;;;;;1.02;0.77;;;;;;;29.31;47.79;99764.53;5087550;28;20452;-65
2023/08/17 11:33:16;;;;;;;1.98;1.20;;;;;;;29.17;47.97;99763.78;5080934;28;20393;-63
2023/08/17 11:35:49;;;;;;;0.60;0.52;;;;;;;29.15;48.14;99760.41;5093553;28;20048;-62
2023/08/17 11:38:19;;;;;;;1.10;0.80;;;;;;;29.09;48.57;99753.00;5091956;28;20048;-63
2023/08/17 11:40:49;;;;;;;0.50;0.50;;;;;;;28.98;48.54;99758.25;5093892;28;20106;-63
2023/08/17 11:43:20;;;;;;;0.52;0.52;;;;;;;28.87;48.74;99750.31;5093437;28;20094;-65
2023/08/17 11:45:50;;;;;;;0.73;0.73;;;;;;;28.76;48.84;99752.06;5094236;28;20557;-62
2023/08/17 11:48:20;;;;;;;1.75;0.80;;;;;;;28.77;49.16;99746.69;5088265;28;20052;-63
2023/08/17 11:50:50;;;;;;;1.10;1.02;;;;;;;28.73;49.67;99736.50;5093480;28;20051;-62
2023/08/17 11:53:19;;;;;;;0.60;0.60;;;;;;;28.76;49.45;99737.13;5093964;28;20052;-63